createdAt,value
2018-06-15T00:01:04.658Z,5.60
2018-06-15T00:03:32.806Z,5.40
2018-06-15T00:06:00.966Z,5.40
2018-06-15T00:08:29.119Z,5.45
2018-06-15T00:10:57.262Z,5.65
2018-06-15T00:13:25.402Z,5.20
2018-06-15T00:15:53.561Z,5.00
2018-06-15T00:18:21.705Z,5.20
2018-06-15T00:20:49.850Z,4.70
2018-06-15T00:23:17.993Z,4.50
2018-06-15T00:25:46.145Z,5.00
2018-06-15T00:28:14.318Z,4.87
2018-06-15T00:30:42.486Z,4.70
2018-06-15T00:33:10.613Z,4.83
2018-06-15T00:35:38.805Z,4.60
2018-06-15T00:38:06.965Z,4.90
2018-06-15T00:40:35.110Z,5.10
2018-06-15T00:43:03.247Z,4.50
2018-06-15T00:45:31.406Z,4.80
2018-06-15T00:47:59.581Z,4.80
2018-06-15T00:50:27.742Z,4.85
2018-06-15T00:52:55.934Z,4.20
2018-06-15T00:55:24.104Z,4.95
2018-06-15T00:57:52.305Z,4.83
2018-06-15T01:00:20.503Z,4.83
2018-06-15T01:02:48.670Z,5.20
2018-06-15T01:05:16.854Z,4.17
2018-06-15T01:07:45.046Z,4.70
2018-06-15T01:10:13.262Z,4.90
2018-06-15T01:12:41.441Z,4.30
2018-06-15T01:15:09.614Z,4.70
2018-06-15T01:17:38.145Z,4.72
2018-06-15T01:20:06.337Z,4.80
2018-06-15T01:22:34.505Z,5.17
2018-06-15T01:25:02.703Z,4.83
2018-06-15T01:27:30.913Z,4.70
2018-06-15T01:29:59.098Z,4.30
2018-06-15T01:32:27.265Z,4.80
2018-06-15T01:34:55.435Z,4.78
2018-06-15T01:37:23.673Z,4.55
2018-06-15T01:39:51.852Z,4.60
2018-06-15T01:42:20.046Z,4.40
2018-06-15T01:44:48.250Z,4.60
2018-06-15T01:47:16.417Z,4.60
2018-06-15T01:49:44.578Z,4.47
2018-06-15T01:52:12.770Z,4.60
2018-06-15T01:54:40.950Z,4.90
2018-06-15T01:57:09.173Z,4.20
2018-06-15T01:59:37.330Z,4.95
2018-06-15T02:02:05.529Z,5.10
2018-06-15T02:04:33.717Z,4.70
2018-06-15T02:07:01.913Z,5.03
2018-06-15T02:09:30.099Z,4.60
2018-06-15T02:11:58.353Z,4.70
2018-06-15T02:14:26.509Z,4.40
2018-06-15T02:16:54.714Z,5.58
2018-06-15T02:19:22.897Z,4.60
2018-06-15T02:21:51.090Z,4.60
2018-06-15T02:24:19.286Z,4.50
2018-06-15T02:26:47.462Z,4.87
2018-06-15T02:29:15.651Z,4.40
2018-06-15T02:31:43.894Z,4.10
2018-06-15T02:34:12.089Z,4.60
2018-06-15T02:36:40.296Z,4.28
2018-06-15T02:39:09.709Z,4.10
2018-06-15T02:41:37.911Z,4.30
2018-06-15T02:44:06.178Z,4.30
2018-06-15T02:46:34.846Z,4.50
2018-06-15T02:51:30.530Z,3.60
2018-06-15T02:53:58.709Z,3.97
2018-06-15T02:56:26.898Z,5.00
2018-06-15T02:58:55.120Z,4.60
2018-06-15T03:01:23.262Z,4.40
2018-06-15T03:03:51.459Z,4.47
2018-06-15T03:06:19.658Z,4.20
2018-06-15T03:08:47.902Z,4.40
2018-06-15T03:11:16.216Z,4.37
2018-06-15T03:13:44.450Z,4.10
2018-06-15T03:16:12.655Z,4.00
2018-06-15T03:18:40.833Z,4.40
2018-06-15T03:21:09.009Z,4.55
2018-06-15T03:23:37.223Z,4.47
2018-06-15T03:26:05.404Z,3.75
2018-06-15T03:28:33.594Z,4.12
2018-06-15T03:31:01.771Z,4.50
2018-06-15T03:33:29.957Z,4.40
2018-06-15T03:35:58.138Z,3.90
2018-06-15T03:38:26.322Z,4.60
2018-06-15T03:40:54.512Z,5.55
2018-06-15T03:43:22.719Z,4.70
2018-06-15T03:45:50.968Z,4.67
2018-06-15T03:48:19.167Z,4.33
2018-06-15T03:50:47.382Z,4.65
2018-06-15T03:53:15.578Z,4.75
2018-06-15T03:55:43.775Z,4.70
2018-06-15T03:58:11.953Z,4.58
2018-06-15T04:00:40.133Z,4.80
2018-06-15T04:03:08.318Z,4.80
2018-06-15T04:05:36.499Z,5.10
2018-06-15T04:08:04.734Z,4.90
2018-06-15T04:10:32.909Z,5.00
2018-06-15T04:13:01.204Z,5.55
2018-06-15T04:15:29.322Z,5.75
2018-06-15T04:18:01.758Z,5.70
2018-06-15T04:20:29.964Z,5.60
2018-06-15T04:22:58.167Z,5.60
2018-06-15T04:25:26.367Z,5.92
2018-06-15T04:27:54.833Z,5.50
2018-06-15T04:30:23.071Z,5.92
2018-06-15T04:32:51.262Z,5.65
2018-06-15T04:35:19.539Z,5.65
2018-06-15T04:37:48.051Z,5.50
2018-06-15T04:40:16.230Z,5.40
2018-06-15T04:42:44.754Z,5.35
2018-06-15T04:45:13.094Z,5.90
2018-06-15T04:47:41.331Z,5.87
2018-06-15T04:50:09.760Z,5.60
2018-06-15T04:52:37.932Z,5.83
2018-06-15T04:55:06.561Z,5.90
2018-06-15T04:57:34.761Z,6.08
2018-06-15T05:00:02.962Z,6.15
2018-06-15T05:02:31.173Z,5.70
2018-06-15T05:05:00.178Z,6.25
2018-06-15T05:07:28.406Z,5.50
2018-06-15T05:09:56.770Z,5.37
2018-06-15T05:12:24.930Z,5.53
2018-06-15T05:14:53.149Z,6.13
2018-06-15T05:17:21.330Z,6.10
2018-06-15T05:19:49.458Z,5.30
2018-06-15T05:22:17.634Z,5.30
2018-06-15T05:24:45.798Z,5.90
2018-06-15T05:27:13.950Z,5.80
2018-06-15T05:29:42.106Z,5.63
2018-06-15T05:32:10.282Z,5.27
2018-06-15T05:34:38.437Z,5.77
2018-06-15T05:37:06.633Z,5.23
2018-06-15T05:39:34.791Z,5.90
2018-06-15T05:42:02.947Z,5.17
2018-06-15T05:44:31.109Z,5.37
2018-06-15T05:46:59.249Z,6.30
2018-06-15T05:49:27.410Z,5.90
2018-06-15T05:51:55.585Z,6.60
2018-06-15T05:54:23.758Z,5.67
2018-06-15T05:56:51.678Z,5.40
2018-06-15T05:59:19.854Z,6.10
2018-06-15T06:01:48.010Z,5.90
2018-06-15T06:04:16.208Z,5.87
2018-06-15T06:06:44.418Z,5.67
2018-06-15T06:09:12.585Z,4.83
2018-06-15T06:11:40.770Z,5.93
2018-06-15T06:14:08.942Z,6.30
2018-06-15T06:16:37.110Z,7.10
2018-06-15T06:19:05.298Z,5.67
2018-06-15T06:21:33.454Z,6.30
2018-06-15T06:24:01.630Z,5.97
2018-06-15T06:26:29.797Z,6.37
2018-06-15T07:13:12.805Z,6.00
2018-06-15T07:15:40.947Z,7.07
2018-06-15T07:18:09.113Z,6.90
2018-06-15T07:20:37.289Z,6.63
2018-06-15T07:23:05.222Z,7.60
2018-06-15T07:25:33.398Z,8.17
2018-06-15T07:28:01.562Z,7.60
2018-06-15T07:30:29.738Z,7.40
2018-06-15T07:32:57.906Z,7.87
2018-06-15T07:35:26.077Z,7.10
2018-06-15T07:37:54.242Z,8.03
2018-06-15T07:40:22.425Z,8.33
2018-06-15T07:42:50.601Z,5.90
2018-06-15T07:45:18.778Z,5.87
2018-06-15T07:47:46.942Z,5.80
2018-06-15T07:50:15.119Z,5.70
2018-06-15T07:52:43.282Z,6.30
2018-06-15T07:55:11.446Z,6.67
2018-06-15T07:57:39.596Z,5.70
2018-06-15T08:00:07.790Z,5.40
2018-06-15T08:02:35.951Z,5.93
2018-06-15T08:05:03.875Z,4.57
2018-06-15T08:07:32.028Z,5.10
2018-06-15T08:10:00.210Z,5.70
2018-06-15T08:12:28.370Z,4.80
2018-06-15T08:14:56.528Z,4.60
2018-06-15T08:17:24.445Z,4.70
2018-06-15T08:19:52.615Z,3.60
2018-06-15T08:22:20.768Z,4.67
2018-06-15T08:24:48.925Z,4.60
2018-06-15T08:27:17.098Z,4.43
2018-06-15T08:29:45.253Z,3.90
2018-06-15T08:32:13.415Z,3.70
2018-06-15T08:34:41.562Z,3.80
2018-06-15T08:37:09.726Z,4.40
2018-06-15T08:39:37.899Z,4.20
2018-06-15T08:42:05.858Z,3.60
2018-06-15T08:44:34.007Z,3.40
2018-06-15T08:47:02.167Z,4.00
2018-06-15T08:49:30.321Z,4.40
2018-06-15T08:51:58.495Z,5.70
2018-06-15T08:54:26.658Z,4.10
2018-06-15T08:56:54.813Z,3.90
2018-06-15T08:59:22.976Z,3.90
2018-06-15T09:01:50.949Z,4.67
2018-06-15T09:04:19.048Z,4.40
2018-06-15T09:06:47.212Z,4.23
2018-06-15T09:09:15.357Z,3.83
2018-06-15T09:11:43.574Z,4.43
2018-06-15T09:14:11.737Z,4.90
2018-06-15T09:16:39.930Z,5.10
2018-06-15T09:19:08.111Z,4.50
2018-06-15T09:21:36.275Z,4.30
2018-06-15T09:24:04.433Z,3.77
2018-06-15T09:26:32.595Z,4.27
2018-06-15T09:29:00.750Z,4.53
2018-06-15T09:31:28.953Z,4.50
2018-06-15T09:33:57.137Z,4.77
2018-06-15T09:36:25.085Z,4.53
2018-06-15T09:38:53.274Z,4.53
2018-06-15T09:41:21.402Z,4.40
2018-06-15T09:43:49.557Z,4.00
2018-06-15T09:46:17.764Z,4.13
2018-06-15T09:48:45.919Z,4.03
2018-06-15T09:51:15.206Z,4.47
2018-06-15T09:53:43.377Z,4.10
2018-06-15T09:56:11.549Z,3.80
2018-06-15T09:58:39.719Z,4.00
2018-06-15T10:01:09.842Z,4.53
2018-06-15T10:03:38.990Z,4.73
2018-06-15T10:06:07.213Z,4.10
2018-06-15T10:08:35.968Z,4.60
2018-06-15T10:11:04.477Z,5.03
2018-06-15T10:13:32.645Z,5.07
2018-06-15T10:16:00.835Z,4.37
2018-06-15T10:18:29.000Z,4.60
2018-06-15T10:20:56.917Z,4.87
2018-06-15T10:23:25.089Z,4.10
2018-06-15T10:25:53.022Z,5.20
2018-06-15T10:28:21.195Z,4.30
2018-06-15T10:30:49.366Z,4.57
2018-06-15T10:33:17.545Z,4.40
2018-06-15T10:35:45.713Z,6.33
2018-06-15T10:38:13.890Z,4.87
2018-06-15T10:40:42.057Z,3.70
2018-06-15T10:43:10.243Z,4.60
2018-06-15T10:45:38.450Z,5.10
2018-06-15T10:48:06.963Z,4.40
2018-06-15T10:50:35.122Z,3.33
2018-06-15T10:53:03.297Z,3.90
2018-06-15T10:55:31.512Z,4.60
2018-06-15T10:57:59.948Z,4.50
2018-06-15T11:00:28.110Z,4.70
2018-06-15T11:02:56.281Z,4.40
2018-06-15T11:05:24.446Z,4.20
2018-06-15T11:07:52.626Z,4.30
2018-06-15T11:10:20.785Z,3.70
2018-06-15T11:12:48.966Z,4.30
2018-06-15T11:15:17.187Z,4.03
2018-06-15T11:17:45.365Z,4.23
2018-06-15T11:20:13.530Z,3.80
2018-06-15T11:22:41.701Z,3.50
2018-06-15T11:25:09.875Z,3.30
2018-06-15T11:27:38.110Z,4.57
2018-06-15T11:30:06.331Z,3.27
2018-06-15T11:32:34.828Z,4.17
2018-06-15T11:35:03.007Z,4.27
2018-06-15T11:37:31.182Z,4.67
2018-06-15T11:39:59.378Z,4.10
2018-06-15T11:42:27.562Z,4.53
2018-06-15T11:44:55.476Z,3.77
2018-06-15T11:47:23.650Z,4.00
2018-06-15T11:49:51.569Z,3.83
2018-06-15T11:52:19.754Z,4.67
2018-06-15T11:54:47.922Z,5.03
2018-06-15T11:57:16.117Z,4.17
2018-06-15T11:59:44.293Z,4.13
2018-06-15T12:02:12.454Z,3.70
2018-06-15T12:04:40.630Z,4.70
2018-06-15T12:07:08.990Z,4.70
2018-06-15T12:09:37.172Z,3.30
2018-06-15T12:12:05.334Z,4.27
2018-06-15T12:14:33.538Z,4.63
2018-06-15T12:17:01.705Z,4.10
2018-06-15T12:19:29.638Z,4.10
2018-06-15T12:21:57.811Z,3.63
2018-06-15T12:24:25.981Z,4.60
2018-06-15T12:26:54.151Z,3.80
2018-06-15T12:29:22.334Z,3.63
2018-06-15T12:31:50.507Z,3.90
2018-06-15T12:34:18.698Z,3.77
2018-06-15T12:36:46.839Z,3.50
2018-06-15T12:39:15.015Z,4.10
2018-06-15T12:41:43.179Z,3.27
2018-06-15T12:44:11.350Z,3.73
2018-06-15T12:46:39.517Z,3.70
2018-06-15T12:49:07.697Z,2.80
2018-06-15T12:51:36.603Z,3.57
2018-06-15T12:54:04.521Z,3.23
2018-06-15T12:56:32.694Z,4.40
2018-06-15T12:59:00.865Z,4.57
2018-06-15T13:01:29.033Z,3.80
2018-06-15T13:03:57.219Z,4.27
2018-06-15T13:06:25.378Z,3.80
2018-06-15T13:08:53.657Z,3.33
2018-06-15T13:11:21.903Z,3.20
2018-06-15T13:13:50.074Z,2.70
2018-06-15T13:16:17.989Z,3.20
2018-06-15T13:18:46.746Z,3.27
2018-06-15T13:21:14.977Z,4.10
2018-06-15T13:23:43.196Z,3.00
2018-06-15T13:26:11.301Z,3.23
2018-06-15T13:28:39.502Z,3.00
2018-06-15T13:31:07.679Z,3.10
2018-06-15T13:33:35.841Z,3.00
2018-06-15T13:36:04.306Z,2.90
2018-06-15T13:38:32.473Z,3.10
2018-06-15T13:41:00.659Z,3.33
2018-06-15T13:43:28.825Z,3.47
2018-06-15T13:45:56.994Z,3.30
2018-06-15T13:48:25.178Z,2.73
2018-06-15T13:50:53.356Z,3.20
2018-06-15T13:53:21.277Z,2.60
2018-06-15T13:55:49.437Z,3.40
2018-06-15T13:58:17.585Z,2.80
2018-06-15T14:00:45.754Z,3.17
2018-06-15T14:03:13.906Z,3.20
2018-06-15T14:20:27.914Z,3.00
2018-06-15T14:22:56.094Z,2.95
2018-06-15T14:25:24.250Z,2.60
2018-06-15T14:27:52.405Z,3.03
2018-06-15T14:30:20.562Z,2.30
2018-06-15T14:32:48.715Z,2.77
2018-06-15T14:35:16.871Z,2.90
2018-06-15T14:37:45.026Z,3.30
2018-06-15T14:40:13.189Z,3.00
2018-06-15T14:42:41.342Z,3.07
2018-06-15T14:45:09.502Z,2.80
2018-06-15T14:47:37.654Z,3.37
2018-06-15T14:50:05.813Z,3.23
2018-06-15T14:52:33.997Z,2.93
2018-06-15T14:55:02.174Z,2.90
2018-06-15T14:57:30.342Z,2.50
2018-06-15T14:59:58.519Z,3.03
2018-06-15T15:02:26.702Z,2.83
2018-06-15T15:04:54.944Z,3.07
2018-06-15T15:07:23.086Z,3.03
2018-06-15T15:09:51.266Z,3.10
2018-06-15T15:12:19.455Z,3.13
2018-06-15T15:14:47.610Z,3.13
2018-06-15T15:17:15.790Z,3.63
2018-06-15T15:19:43.950Z,2.70
2018-06-15T15:22:12.130Z,3.17
2018-06-15T15:24:40.289Z,3.00
2018-06-15T15:27:08.536Z,2.77
2018-06-15T15:29:36.753Z,3.13
2018-06-15T15:32:04.923Z,3.00
2018-06-15T15:34:33.089Z,2.60
2018-06-15T15:37:01.266Z,2.70
2018-06-15T15:39:29.442Z,2.50
2018-06-15T15:41:57.611Z,2.67
2018-06-15T15:44:25.792Z,2.87
2018-06-15T15:46:53.963Z,2.10
2018-06-15T15:49:22.131Z,2.03
2018-06-15T15:51:50.317Z,2.80
2018-06-15T15:54:18.541Z,3.80
2018-06-15T15:56:46.716Z,2.20
2018-06-15T15:59:14.885Z,2.63
2018-06-15T16:01:43.054Z,3.00
2018-06-15T16:04:11.225Z,2.90
2018-06-15T16:06:39.426Z,3.03
2018-06-15T16:09:08.146Z,2.60
2018-06-15T16:11:36.324Z,2.58
2018-06-15T16:14:04.912Z,1.90
2018-06-15T16:16:33.090Z,2.30
2018-06-15T16:19:01.266Z,2.67
2018-06-15T16:21:29.674Z,2.30
2018-06-15T16:23:57.841Z,2.40
2018-06-15T16:26:26.035Z,2.83
2018-06-15T16:28:54.210Z,2.23
2018-06-15T16:31:22.382Z,2.60
2018-06-15T16:33:50.569Z,3.00
2018-06-15T16:36:18.738Z,2.67
2018-06-15T16:38:46.912Z,2.60
2018-06-15T16:41:15.077Z,2.57
2018-06-15T16:43:43.246Z,2.90
2018-06-15T16:46:11.431Z,2.37
2018-06-15T16:48:39.650Z,2.30
2018-06-15T16:51:07.941Z,2.80
2018-06-15T16:53:36.097Z,2.80
2018-06-15T16:56:04.262Z,3.77
2018-06-15T16:58:32.401Z,2.33
2018-06-15T17:35:25.186Z,3.37
2018-06-15T17:37:53.111Z,2.77
2018-06-15T17:40:21.261Z,3.47
2018-06-15T17:42:49.418Z,2.70
2018-06-15T17:45:17.570Z,2.83
2018-06-15T17:47:45.730Z,2.97
2018-06-15T17:50:13.882Z,3.30
2018-06-15T17:52:42.071Z,3.10
2018-06-15T17:55:10.267Z,3.10
2018-06-15T17:57:38.485Z,3.30
2018-06-15T18:00:06.922Z,3.30
2018-06-15T18:02:35.435Z,3.30
2018-06-15T18:05:03.647Z,3.12
2018-06-15T18:07:32.043Z,3.17
2018-06-15T18:10:00.214Z,3.47
2018-06-15T18:12:28.382Z,3.17
2018-06-15T18:17:24.134Z,3.10
2018-06-15T18:19:52.302Z,2.80
2018-06-15T18:22:20.478Z,3.00
2018-06-15T18:24:48.646Z,2.77
2018-06-15T18:27:16.823Z,2.67
2018-06-15T18:29:45.068Z,2.80
2018-06-15T18:32:13.173Z,3.10
2018-06-15T18:34:41.337Z,2.83
2018-06-15T18:37:09.513Z,2.83
2018-06-15T18:39:37.699Z,2.90
2018-06-15T18:42:05.914Z,3.13
2018-06-15T18:44:34.086Z,3.13
2018-06-15T18:47:02.258Z,3.80
2018-06-15T18:49:30.435Z,3.20
2018-06-15T18:51:58.613Z,4.40
2018-06-15T18:54:26.788Z,3.37
2018-06-15T18:56:54.938Z,3.50
2018-06-15T18:59:23.096Z,3.80
2018-06-15T19:01:51.253Z,4.07
2018-06-15T19:04:20.278Z,3.60
2018-06-15T19:06:49.022Z,3.80
2018-06-15T19:09:17.173Z,4.13
2018-06-15T19:11:45.321Z,3.60
2018-06-15T19:14:13.486Z,3.60
2018-06-15T19:16:41.675Z,4.70
2018-06-15T19:19:09.821Z,4.20
2018-06-15T19:21:37.974Z,4.27
2018-06-15T19:24:06.157Z,4.47
2018-06-15T19:26:34.390Z,3.80
2018-06-15T19:29:02.596Z,4.70
2018-06-15T19:31:30.634Z,4.63
2018-06-15T19:33:58.785Z,4.25
2018-06-15T19:36:26.962Z,4.58
2018-06-15T19:38:55.154Z,4.70
2018-06-15T19:41:23.319Z,4.70
2018-06-15T19:43:51.480Z,4.80
2018-06-15T19:46:19.658Z,4.50
2018-06-15T19:48:47.841Z,5.10
2018-06-15T19:51:15.998Z,4.87
2018-06-15T19:53:44.197Z,5.10
2018-06-15T19:56:12.391Z,4.80
2018-06-15T19:58:40.658Z,4.40
2018-06-15T20:01:08.850Z,4.72
2018-06-15T20:03:37.038Z,4.40
2018-06-15T20:06:05.457Z,5.10
2018-06-15T20:08:33.666Z,4.80
2018-06-15T20:11:01.842Z,5.30
2018-06-15T20:13:30.010Z,4.70
2018-06-15T20:15:58.211Z,5.80
2018-06-15T20:18:26.425Z,5.50
2018-06-15T20:20:54.650Z,5.60
2018-06-15T20:23:22.861Z,5.50
2018-06-15T20:25:51.021Z,5.58
2018-06-15T20:28:19.206Z,5.20
2018-06-15T20:30:47.424Z,5.07
2018-06-15T20:33:15.825Z,5.50
2018-06-15T20:35:44.058Z,5.57
2018-06-15T20:38:12.238Z,5.60
2018-06-15T20:40:40.466Z,5.60
2018-06-15T20:43:08.650Z,5.50
2018-06-15T20:45:36.942Z,5.40
2018-06-15T20:48:05.371Z,6.20
2018-06-15T20:50:33.557Z,5.55
2018-06-15T20:53:01.825Z,5.75
2018-06-15T20:55:30.131Z,6.50
2018-06-15T20:57:58.333Z,5.70
2018-06-15T21:00:26.505Z,5.72
2018-06-15T21:02:54.678Z,5.70
2018-06-15T21:05:22.868Z,5.40
2018-06-15T21:07:51.046Z,6.70
2018-06-15T21:10:19.226Z,6.30
2018-06-15T21:12:47.418Z,6.15
2018-06-15T21:15:15.626Z,6.10
2018-06-15T21:17:43.823Z,6.05
2018-06-15T21:20:12.642Z,5.80
2018-06-15T21:22:40.815Z,5.70
2018-06-15T21:25:08.998Z,6.58
2018-06-15T21:27:37.190Z,6.33
2018-06-15T21:30:05.510Z,6.47
2018-06-15T21:32:33.705Z,6.80
2018-06-15T21:35:01.899Z,6.70
2018-06-15T21:37:30.074Z,5.72
2018-06-15T21:39:58.270Z,6.00
2018-06-15T21:42:26.433Z,6.45
2018-06-15T21:44:54.616Z,6.03
2018-06-15T21:47:22.791Z,7.00
2018-06-15T21:49:50.962Z,6.40
2018-06-15T21:52:19.158Z,6.25
2018-06-15T21:54:47.360Z,6.28
2018-06-15T21:57:16.338Z,6.30
2018-06-15T21:59:44.517Z,6.25
2018-06-15T22:02:12.690Z,6.80
2018-06-15T22:04:40.882Z,6.10
2018-06-15T22:07:09.058Z,6.00
2018-06-15T22:09:37.255Z,5.90
2018-06-15T22:12:05.450Z,6.28
2018-06-15T22:14:33.634Z,6.70
2018-06-15T22:17:01.814Z,6.40
2018-06-15T22:19:29.989Z,6.20
2018-06-15T22:21:58.179Z,6.43
2018-06-15T22:24:26.379Z,6.27
2018-06-15T22:26:54.578Z,6.75
2018-06-15T22:29:22.771Z,6.97
2018-06-15T22:31:50.966Z,6.78
2018-06-15T22:34:19.134Z,6.30
2018-06-15T22:36:47.323Z,6.22
2018-06-15T22:39:16.311Z,6.75
2018-06-15T22:41:44.576Z,6.37
2018-06-15T22:44:13.325Z,6.67
2018-06-15T22:46:42.239Z,6.50
2018-06-15T22:49:11.146Z,6.80
2018-06-15T22:51:39.866Z,5.90
2018-06-15T22:54:08.034Z,6.67
2018-06-15T22:56:36.196Z,6.70
2018-06-15T22:59:04.370Z,6.72
2018-06-15T23:01:32.566Z,6.45
2018-06-15T23:04:00.755Z,6.85
2018-06-15T23:06:28.950Z,6.72
2018-06-15T23:08:57.143Z,6.40
2018-06-15T23:11:25.309Z,6.70
2018-06-15T23:13:53.489Z,6.67
2018-06-15T23:16:21.654Z,6.90
2018-06-15T23:18:49.813Z,7.60
2018-06-15T23:21:17.978Z,6.90
2018-06-15T23:23:46.155Z,6.85
2018-06-15T23:26:14.328Z,7.03
2018-06-15T23:28:42.511Z,6.40
2018-06-15T23:31:10.702Z,7.20
2018-06-15T23:33:38.870Z,6.40
2018-06-15T23:36:07.061Z,6.62
2018-06-15T23:38:35.225Z,6.83
2018-06-15T23:41:03.423Z,7.07
2018-06-15T23:43:31.598Z,7.07
2018-06-15T23:45:59.790Z,6.90
2018-06-15T23:48:27.965Z,6.72
2018-06-15T23:50:56.162Z,6.92
2018-06-15T23:53:24.394Z,6.95
2018-06-15T23:55:52.526Z,6.50
2018-06-15T23:58:20.825Z,7.25
